Time;durP1;ratioP1;P1;durP2;ratioP2;P2;SDS_P1;SDS_P2;PMS_P1;PMS_P2;Temp;Humidity;BMP_temperature;BMP_pressure;BME280_temperature;BME280_humidity;BME280_pressure;Samples;Min_cycle;Max_cycle;Signal;HPM_P1;HPM_P2
2022/11/03 00:01:48;;;;;;;0.00;0.00;;;;;;;9.26;78.24;100666.63;5014786;28;20176;-80
2022/11/03 00:04:16;;;;;;;0.00;0.00;;;;;;;9.24;78.34;100650.53;5032270;28;20175;-80
2022/11/03 00:06:42;;;;;;;0.03;0.03;;;;;;;9.23;78.36;100667.19;5032365;28;20250;-80
2022/11/03 00:09:10;;;;;;;0.00;0.00;;;;;;;9.24;78.85;100666.09;5032369;28;20267;-80
2022/11/03 00:11:37;;;;;;;0.00;0.00;;;;;;;9.25;78.28;100656.78;5032230;28;20267;-80
2022/11/03 00:14:03;;;;;;;0.00;0.00;;;;;;;9.22;78.38;100654.66;5032364;28;20592;-80
2022/11/03 00:16:29;;;;;;;0.00;0.00;;;;;;;9.23;78.82;100646.19;5032051;28;20603;-80
2022/11/03 00:18:54;;;;;;;0.00;0.00;;;;;;;9.24;78.52;100650.53;5032059;28;20216;-80
2022/11/03 00:21:20;;;;;;;0.00;0.00;;;;;;;9.23;78.78;100648.09;5032275;28;20172;-80
2022/11/03 00:23:45;;;;;;;0.00;0.00;;;;;;;9.28;78.73;100650.78;5031290;28;20164;-80
2022/11/03 00:26:21;;;;;;;0.00;0.00;;;;;;;9.22;78.56;100641.03;5032102;28;20229;-80
2022/11/03 00:28:49;;;;;;;0.00;0.00;;;;;;;9.18;79.09;100657.19;5032010;28;20176;-78
2022/11/03 00:31:17;;;;;;;0.30;0.30;;;;;;;9.18;78.52;100640.03;5031947;28;20234;-78
2022/11/03 00:33:42;;;;;;;0.00;0.00;;;;;;;9.20;78.88;100643.25;5031495;28;20290;-80
2022/11/03 00:36:13;;;;;;;0.00;0.00;;;;;;;9.16;78.94;100648.50;5031837;28;20266;-79
2022/11/03 00:38:38;;;;;;;0.00;0.00;;;;;;;9.20;79.01;100646.78;5031788;28;20168;-80
2022/11/03 00:41:05;;;;;;;0.00;0.00;;;;;;;9.17;78.63;100644.66;5031760;28;20183;-80
2022/11/03 00:43:32;;;;;;;0.00;0.00;;;;;;;9.14;79.06;100639.00;5031542;28;20171;-80
2022/11/03 00:45:58;;;;;;;0.60;0.20;;;;;;;9.13;79.16;100642.84;5031456;28;20195;-80
2022/11/03 00:48:31;;;;;;;0.60;0.60;;;;;;;8.92;79.62;100645.84;5031513;28;20334;-80
2022/11/03 00:51:08;;;;;;;0.00;0.00;;;;;;;8.88;80.43;100638.56;5031742;28;20234;-80
2022/11/03 00:53:39;;;;;;;0.00;0.00;;;;;;;8.97;80.48;100638.69;5031368;28;20207;-80
2022/11/03 00:56:05;;;;;;;0.00;0.00;;;;;;;9.06;79.57;100626.84;5031557;28;20267;-80
2022/11/03 00:58:32;;;;;;;2.67;0.37;;;;;;;9.04;79.36;100620.88;5031443;28;20251;-79
2022/11/03 01:01:06;;;;;;;0.00;0.00;;;;;;;9.11;79.50;100628.66;5031594;28;20272;-81
2022/11/03 01:03:34;;;;;;;0.00;0.00;;;;;;;9.12;79.58;100630.31;5031491;28;20572;-81
2022/11/03 01:08:43;;;;;;;0.00;0.00;;;;;;;9.16;78.75;100629.41;5031574;28;20186;-80
2022/11/03 01:13:55;;;;;;;0.00;0.00;;;;;;;9.24;78.77;100617.00;5031157;28;20210;-80
2022/11/03 01:16:21;;;;;;;0.00;0.00;;;;;;;9.26;79.01;100614.81;5030991;28;20168;-80
2022/11/03 01:18:47;;;;;;;0.00;0.00;;;;;;;9.17;79.06;100611.16;5031216;28;20435;-80
2022/11/03 01:21:13;;;;;;;0.00;0.00;;;;;;;9.16;78.92;100613.06;5031069;28;20198;-81
2022/11/03 01:23:38;;;;;;;0.00;0.00;;;;;;;9.19;79.01;100608.94;5030970;28;20176;-80
2022/11/03 01:26:05;;;;;;;0.00;0.00;;;;;;;9.28;78.98;100607.16;5031068;28;20656;-80
2022/11/03 01:31:52;;;;;;;0.00;0.00;;;;;;;9.21;78.78;100587.63;5030872;28;20222;-78
2022/11/03 01:34:20;;;;;;;0.00;0.00;;;;;;;9.13;79.29;100586.41;5030828;28;20180;-81
2022/11/03 01:36:46;;;;;;;0.00;0.00;;;;;;;9.12;79.45;100581.25;5030954;28;20168;-80
2022/11/03 01:39:13;;;;;;;0.00;0.00;;;;;;;9.12;80.05;100573.09;5030891;28;20183;-79
2022/11/03 01:41:40;;;;;;;0.00;0.00;;;;;;;9.02;80.19;100567.78;5030866;28;20196;-79
2022/11/03 01:44:05;;;;;;;0.00;0.00;;;;;;;8.99;80.56;100557.50;5030516;28;20654;-81
2022/11/03 01:46:32;;;;;;;0.00;0.00;;;;;;;8.97;80.43;100563.25;5030897;28;20190;-81
2022/11/03 01:49:10;;;;;;;0.00;0.00;;;;;;;8.93;80.32;100554.84;5030803;28;20210;-81
2022/11/03 01:51:37;;;;;;;0.00;0.00;;;;;;;8.90;80.94;100558.16;5030766;28;20305;-80
2022/11/03 01:54:07;;;;;;;0.00;0.00;;;;;;;8.89;81.27;100556.53;5030499;28;20563;-80
2022/11/03 01:56:35;;;;;;;0.00;0.00;;;;;;;8.87;81.02;100547.88;5030870;28;20167;-79
2022/11/03 01:59:02;;;;;;;0.00;0.00;;;;;;;8.98;80.36;100540.34;5030740;28;20176;-80
2022/11/03 02:01:29;;;;;;;0.00;0.00;;;;;;;8.91;80.79;100532.53;5030789;28;20232;-78
2022/11/03 02:04:01;;;;;;;0.00;0.00;;;;;;;8.95;80.14;100527.28;5012806;28;20211;-79
2022/11/03 02:06:28;;;;;;;0.00;0.00;;;;;;;8.86;81.47;100518.19;5030692;28;20611;-80
2022/11/03 02:09:05;;;;;;;0.00;0.00;;;;;;;8.92;81.53;100528.69;5030578;28;20238;-80
2022/11/03 02:14:18;;;;;;;0.00;0.00;;;;;;;8.94;80.96;100521.03;5030774;28;20633;-80
2022/11/03 02:16:49;;;;;;;0.00;0.00;;;;;;;8.94;80.85;100531.13;5030184;28;20176;-78
2022/11/03 02:19:25;;;;;;;0.00;0.00;;;;;;;8.92;81.56;100525.16;5030803;28;20187;-77
2022/11/03 02:22:20;;;;;;;0.00;0.00;;;;;;;9.02;80.72;100529.63;5030158;28;20668;-81
2022/11/03 02:25:05;;;;;;;0.00;0.00;;;;;;;8.79;80.77;100518.56;5029968;28;20214;-77
2022/11/03 02:27:31;;;;;;;0.00;0.00;;;;;;;8.83;81.74;100513.34;5030044;28;20182;-78
2022/11/03 02:29:57;;;;;;;0.00;0.00;;;;;;;8.78;81.38;100514.22;5030058;28;20490;-79
2022/11/03 02:32:32;;;;;;;0.00;0.00;;;;;;;8.88;81.32;100511.34;5012344;28;20611;-81
2022/11/03 02:35:11;;;;;;;0.00;0.00;;;;;;;8.83;81.37;100507.91;5029970;28;20659;-79
2022/11/03 02:37:42;;;;;;;0.00;0.00;;;;;;;8.94;81.51;100521.03;5029887;28;20634;-80
2022/11/03 02:40:13;;;;;;;0.00;0.00;;;;;;;8.87;81.39;100512.44;5029815;28;20227;-77
2022/11/03 02:42:44;;;;;;;0.00;0.00;;;;;;;8.72;82.12;100503.72;5029617;28;20542;-80
2022/11/03 02:45:12;;;;;;;0.00;0.00;;;;;;;8.73;82.22;100518.94;5029699;28;20220;-80
2022/11/03 02:47:39;;;;;;;0.00;0.00;;;;;;;8.77;81.46;100501.72;5032836;28;20179;-77
2022/11/03 02:50:09;;;;;;;0.00;0.00;;;;;;;8.65;82.16;100517.69;5033349;28;20579;-80
2022/11/03 02:52:39;;;;;;;0.00;0.00;;;;;;;8.67;81.79;100509.22;5033156;28;20318;-80
2022/11/03 02:55:14;;;;;;;3.43;3.23;;;;;;;8.72;82.08;100501.00;5033333;28;20689;-80
2022/11/03 02:57:51;;;;;;;0.00;0.00;;;;;;;8.78;81.34;100495.16;5033289;28;20390;-80
2022/11/03 03:00:17;;;;;;;0.00;0.00;;;;;;;8.77;81.15;100496.25;5033184;28;20218;-78
2022/11/03 03:02:54;;;;;;;0.00;0.00;;;;;;;8.74;81.69;100487.88;5032769;28;20172;-78
2022/11/03 03:05:26;;;;;;;0.00;0.00;;;;;;;8.75;82.18;100490.31;5033172;28;20199;-81
2022/11/03 03:07:56;;;;;;;0.00;0.00;;;;;;;8.70;81.58;100490.41;5032985;28;20175;-79
2022/11/03 03:10:32;;;;;;;0.87;0.87;;;;;;;8.69;81.54;100488.78;5033020;28;20697;-79
2022/11/03 03:12:59;;;;;;;0.47;0.47;;;;;;;8.65;82.26;100485.81;5032567;28;20689;-77
2022/11/03 03:15:49;;;;;;;0.00;0.00;;;;;;;8.67;81.91;100480.06;5032495;28;20176;-80
2022/11/03 03:18:26;;;;;;;0.20;0.20;;;;;;;8.69;82.07;100479.81;5014517;28;20184;-79
2022/11/03 03:20:57;;;;;;;0.00;0.00;;;;;;;8.73;81.99;100472.66;5032894;28;20756;-78
2022/11/03 03:23:26;;;;;;;0.00;0.00;;;;;;;8.72;81.53;100463.66;5032560;28;20176;-79
2022/11/03 03:26:00;;;;;;;2.20;2.10;;;;;;;8.75;81.58;100465.78;5032793;28;20179;-79
2022/11/03 03:28:33;;;;;;;0.00;0.00;;;;;;;8.87;81.52;100451.69;5032585;28;20182;-79
2022/11/03 03:31:01;;;;;;;0.00;0.00;;;;;;;8.92;80.64;100448.88;5033124;28;20160;-79
2022/11/03 03:33:28;;;;;;;0.83;0.67;;;;;;;8.96;80.73;100433.53;5032149;28;20232;-80
2022/11/03 03:35:56;;;;;;;0.77;0.27;;;;;;;8.95;80.19;100454.53;5031479;28;20567;-79
2022/11/03 03:38:27;;;;;;;1.17;0.40;;;;;;;8.92;80.32;100448.88;5032354;28;20178;-80
2022/11/03 03:40:56;;;;;;;1.17;0.80;;;;;;;8.94;80.66;100447.47;5032625;28;20180;-80
2022/11/03 03:43:25;;;;;;;0.10;0.10;;;;;;;8.85;81.03;100445.75;5032144;28;20172;-80
2022/11/03 03:45:53;;;;;;;0.30;0.30;;;;;;;8.89;80.59;100444.03;5032286;28;20547;-80
2022/11/03 03:48:19;;;;;;;2.50;1.87;;;;;;;8.85;81.26;100443.03;5032232;28;20636;-80
2022/11/03 03:50:46;;;;;;;0.10;0.10;;;;;;;8.84;80.74;100449.56;5032500;28;20183;-79
2022/11/03 03:53:12;;;;;;;0.30;0.30;;;;;;;8.82;80.94;100429.97;5032037;28;20223;-80
2022/11/03 03:55:44;;;;;;;0.00;0.00;;;;;;;8.78;80.70;100427.06;5014604;28;20543;-80
2022/11/03 03:58:14;;;;;;;0.20;0.20;;;;;;;8.76;81.37;100431.19;5031193;28;20168;-81
2022/11/03 04:00:40;;;;;;;1.17;1.17;;;;;;;8.74;81.43;100423.31;5014288;28;20175;-80
2022/11/03 04:03:11;;;;;;;0.00;0.00;;;;;;;8.67;81.88;100414.72;5031851;28;20168;-79
2022/11/03 04:05:36;;;;;;;0.00;0.00;;;;;;;8.71;81.85;100418.47;5032117;28;20310;-80
2022/11/03 04:08:02;;;;;;;0.00;0.00;;;;;;;8.72;82.45;100413.84;5032061;28;20635;-80
2022/11/03 04:10:27;;;;;;;0.00;0.00;;;;;;;8.73;82.28;100410.81;5032062;28;20176;-80
2022/11/03 04:23:46;;;;;;;3.90;0.60;;;;;;;8.77;82.37;100381.84;5031731;28;20186;-79
2022/11/03 04:26:14;;;;;;;1.07;0.43;;;;;;;8.79;82.50;100385.06;5031630;28;20546;-80
2022/11/03 04:28:41;;;;;;;0.30;0.30;;;;;;;8.77;82.13;100387.28;5031394;28;20172;-78
2022/11/03 04:31:14;;;;;;;0.00;0.00;;;;;;;8.72;82.94;100383.88;5031585;28;20176;-80
2022/11/03 04:33:41;;;;;;;0.20;0.20;;;;;;;8.80;82.28;100383.16;5031006;28;21009;-79
2022/11/03 04:36:19;;;;;;;0.00;0.00;;;;;;;8.88;82.36;100383.28;5013732;28;20241;-80
2022/11/03 04:38:45;;;;;;;0.00;0.00;;;;;;;8.90;82.36;100380.25;5031367;28;20235;-80
2022/11/03 04:41:15;;;;;;;0.53;0.53;;;;;;;8.91;81.79;100374.50;5031151;28;20184;-80
2022/11/03 04:43:41;;;;;;;0.00;0.00;;;;;;;8.94;82.22;100373.88;5030894;28;20172;-77
2022/11/03 04:46:10;;;;;;;0.00;0.00;;;;;;;8.94;82.10;100365.72;5031210;28;20222;-79
2022/11/03 04:48:35;;;;;;;0.00;0.00;;;;;;;8.94;82.14;100367.63;5031315;28;20180;-79
2022/11/03 04:51:12;;;;;;;0.00;0.00;;;;;;;8.90;82.73;100375.63;5031560;28;20180;-80
2022/11/03 04:53:42;;;;;;;0.30;0.30;;;;;;;8.98;82.15;100363.22;5031212;28;20250;-81
2022/11/03 04:56:14;;;;;;;0.10;0.10;;;;;;;9.00;81.99;100358.28;5013372;28;20591;-81
2022/11/03 04:58:40;;;;;;;0.27;0.27;;;;;;;9.02;82.32;100358.78;5030973;28;20187;-80
2022/11/03 05:01:11;;;;;;;0.00;0.00;;;;;;;9.04;81.58;100353.00;5030886;28;20184;-80
2022/11/03 05:03:36;;;;;;;0.00;0.00;;;;;;;8.92;81.84;100348.88;5030727;28;20658;-80
2022/11/03 05:06:14;;;;;;;0.13;0.07;;;;;;;8.94;82.07;100346.66;5031261;28;20203;-75
2022/11/03 05:08:45;;;;;;;0.20;0.13;;;;;;;8.99;82.19;100344.94;5030521;28;20171;-75
2022/11/03 05:11:19;;;;;;;0.00;0.00;;;;;;;8.94;82.42;100346.66;5030786;28;20175;-75
2022/11/03 05:13:44;;;;;;;2.43;0.60;;;;;;;8.97;81.85;100341.69;5029082;28;20289;-75
2022/11/03 05:16:10;;;;;;;0.00;0.00;;;;;;;8.98;82.19;100338.69;5030738;28;20619;-75
2022/11/03 05:18:38;;;;;;;0.50;0.50;;;;;;;9.04;81.90;100339.38;5030633;28;20190;-75
2022/11/03 05:21:08;;;;;;;0.00;0.00;;;;;;;9.00;81.88;100336.47;5030603;28;20176;-77
2022/11/03 05:23:39;;;;;;;0.00;0.00;;;;;;;8.99;82.11;100336.78;5030325;28;20176;-75
2022/11/03 05:26:11;;;;;;;3.10;0.57;;;;;;;8.90;82.42;100332.03;5030897;28;20180;-75
2022/11/03 05:28:41;;;;;;;0.00;0.00;;;;;;;8.92;82.38;100332.53;5030471;28;20533;-76
2022/11/03 05:31:21;;;;;;;0.10;0.10;;;;;;;8.94;82.51;100330.28;5030492;28;20753;-75
2022/11/03 05:33:48;;;;;;;0.27;0.27;;;;;;;8.92;82.86;100329.78;5030176;28;20215;-77
2022/11/03 05:36:19;;;;;;;0.00;0.00;;;;;;;8.85;82.49;100332.13;5030613;28;20574;-76
2022/11/03 05:38:44;;;;;;;0.10;0.10;;;;;;;8.84;82.79;100327.78;5030258;28;20313;-75
2022/11/03 05:41:29;;;;;;;0.83;0.77;;;;;;;8.88;82.72;100325.25;5030314;28;20176;-75
2022/11/03 05:44:11;;;;;;;0.20;0.20;;;;;;;8.90;82.60;100323.84;5030014;28;20171;-76
2022/11/03 05:46:36;;;;;;;0.00;0.00;;;;;;;8.84;82.71;100322.34;5030437;28;20630;-76
2022/11/03 05:49:02;;;;;;;0.20;0.20;;;;;;;8.87;83.36;100315.47;5030497;28;20178;-77
2022/11/03 05:51:32;;;;;;;0.00;0.00;;;;;;;8.84;83.33;100327.00;5030341;28;20172;-76
2022/11/03 05:54:01;;;;;;;0.43;0.43;;;;;;;8.87;83.26;100324.47;5030066;28;20211;-77
2022/11/03 05:56:26;;;;;;;0.83;0.30;;;;;;;8.84;83.66;100319.63;5030059;28;20187;-77
2022/11/03 05:58:55;;;;;;;0.00;0.00;;;;;;;8.83;83.63;100314.47;5028894;28;20199;-77
2022/11/03 06:01:27;;;;;;;0.87;0.83;;;;;;;8.90;83.70;100312.13;5028432;28;20186;-76
2022/11/03 06:03:52;;;;;;;0.60;0.60;;;;;;;8.86;83.89;100308.41;5030643;28;20184;-77
2022/11/03 06:06:33;;;;;;;14.70;1.07;;;;;;;8.87;83.61;100316.28;5030420;28;20168;-80
2022/11/03 06:09:02;;;;;;;0.00;0.00;;;;;;;8.88;83.63;100306.19;5030937;28;20238;-78
2022/11/03 06:11:35;;;;;;;0.00;0.00;;;;;;;8.80;84.03;100307.69;5030528;28;20531;-77
2022/11/03 06:14:09;;;;;;;8.40;1.33;;;;;;;8.84;83.88;100311.44;5013396;28;20237;-80
2022/11/03 06:16:48;;;;;;;0.40;0.40;;;;;;;8.86;84.15;100314.69;5028497;28;20191;-81
2022/11/03 06:19:22;;;;;;;0.03;0.03;;;;;;;8.87;84.12;100315.47;5026963;28;20176;-79
2022/11/03 06:21:52;;;;;;;1.03;0.83;;;;;;;8.84;83.78;100311.44;5030859;28;20176;-77
2022/11/03 06:24:21;;;;;;;0.20;0.20;;;;;;;8.81;84.03;100306.59;5033761;28;20524;-79
2022/11/03 06:26:48;;;;;;;1.40;0.50;;;;;;;8.78;84.66;100309.91;5033877;28;20172;-79
2022/11/03 06:29:17;;;;;;;0.00;0.00;;;;;;;8.78;84.24;100312.63;5033649;28;20623;-79
2022/11/03 06:31:46;;;;;;;0.20;0.20;;;;;;;8.82;85.06;100318.28;5033651;28;20180;-80
2022/11/03 06:34:21;;;;;;;0.10;0.10;;;;;;;8.88;84.43;100307.00;5033625;28;20684;-81
2022/11/03 06:36:46;;;;;;;0.60;0.60;;;;;;;8.87;84.23;100308.13;5033678;28;20644;-79
2022/11/03 06:39:22;;;;;;;2.20;1.60;;;;;;;8.88;84.99;100300.75;5033643;28;20206;-80
2022/11/03 06:41:48;;;;;;;0.00;0.00;;;;;;;8.87;84.84;100299.94;5033496;28;20270;-81
2022/11/03 06:44:23;;;;;;;0.00;0.00;;;;;;;8.79;85.11;100297.91;5033291;28;20191;-81
2022/11/03 06:46:50;;;;;;;0.00;0.00;;;;;;;8.80;85.07;100298.72;5033634;28;20171;-80
2022/11/03 06:49:31;;;;;;;0.00;0.00;;;;;;;8.86;85.02;100292.06;5032368;28;20184;-80
2022/11/03 06:52:34;;;;;;;0.83;0.83;;;;;;;8.88;85.33;100284.41;5032083;28;20215;-82
2022/11/03 06:55:12;;;;;;;0.00;0.00;;;;;;;8.88;85.10;100289.84;4998413;28;20548;-80
2022/11/03 06:57:39;;;;;;;0.00;0.00;;;;;;;8.92;85.66;100291.66;5031078;28;20195;-80
2022/11/03 07:00:24;;;;;;;0.00;0.00;;;;;;;8.95;85.27;100280.13;5033924;28;20190;-79
2022/11/03 07:02:57;;;;;;;5.87;1.63;;;;;;;8.93;85.72;100282.38;5033409;28;20765;-81
2022/11/03 07:05:27;;;;;;;0.60;0.60;;;;;;;9.02;85.42;100265.31;5033579;28;20566;-80
2022/11/03 07:07:59;;;;;;;0.00;0.00;;;;;;;9.11;84.87;100279.81;5033473;28;20265;-80
2022/11/03 07:10:30;;;;;;;2.33;0.33;;;;;;;9.13;84.81;100278.41;5033418;28;20393;-79
2022/11/03 07:12:59;;;;;;;0.00;0.00;;;;;;;9.11;84.45;100271.63;5033174;28;20287;-80
2022/11/03 07:15:34;;;;;;;0.00;0.00;;;;;;;9.20;84.42;100267.09;5033114;28;20179;-81
2022/11/03 07:18:00;;;;;;;0.00;0.00;;;;;;;9.13;84.82;100266.72;5033220;28;20261;-80
2022/11/03 07:20:27;;;;;;;0.00;0.00;;;;;;;9.19;84.85;100254.56;5033306;28;20188;-80
2022/11/03 07:22:54;;;;;;;0.00;0.00;;;;;;;9.21;84.72;100263.25;5033121;28;20349;-81
2022/11/03 07:25:20;;;;;;;0.00;0.00;;;;;;;9.31;84.17;100252.13;5015643;28;20582;-80
2022/11/03 07:27:51;;;;;;;0.77;0.37;;;;;;;9.29;84.18;100243.44;5033175;28;20168;-79
2022/11/03 07:30:18;;;;;;;0.20;0.20;;;;;;;9.31;84.39;100251.31;5028982;28;20551;-79
2022/11/03 07:32:44;;;;;;;0.63;0.03;;;;;;;9.32;84.17;100244.75;5032398;28;20254;-76
2022/11/03 07:35:15;;;;;;;0.40;0.40;;;;;;;9.34;84.17;100251.50;5033016;28;20597;-79
2022/11/03 07:37:40;;;;;;;0.00;0.00;;;;;;;9.35;84.36;100241.41;5032866;28;20164;-77
2022/11/03 07:40:12;;;;;;;0.00;0.00;;;;;;;9.38;84.09;100244.31;5033058;28;20176;-78
2022/11/03 07:42:38;;;;;;;0.10;0.10;;;;;;;9.41;83.95;100245.63;5032762;28;20168;-80
2022/11/03 07:45:37;;;;;;;0.30;0.27;;;;;;;9.48;84.29;100243.28;5032871;28;20191;-88
2022/11/03 07:48:18;;;;;;;0.13;0.13;;;;;;;9.52;83.85;100250.53;5032522;28;20695;-87
2022/11/03 07:50:44;;;;;;;0.53;0.53;;;;;;;9.57;83.60;100251.53;5032975;28;20263;-86
2022/11/03 07:53:39;;;;;;;0.00;0.00;;;;;;;9.61;82.53;100236.16;5032685;28;20249;-87
2022/11/03 07:56:18;;;;;;;0.00;0.00;;;;;;;9.63;83.58;100234.72;5032997;28;20172;-88
2022/11/03 07:58:44;;;;;;;0.00;0.00;;;;;;;9.65;83.21;100228.97;5032712;28;20175;-87
2022/11/03 08:01:26;;;;;;;0.00;0.00;;;;;;;9.71;83.27;100230.47;5032739;28;20184;-88
2022/11/03 08:03:55;;;;;;;0.03;0.03;;;;;;;9.70;83.36;100226.13;5032543;28;20222;-86
2022/11/03 08:06:20;;;;;;;0.37;0.37;;;;;;;9.76;83.62;100219.41;5032923;28;20226;-83
2022/11/03 08:08:45;;;;;;;0.10;0.10;;;;;;;9.83;82.92;100211.56;5032498;28;20176;-84
2022/11/03 08:11:11;;;;;;;0.30;0.30;;;;;;;9.88;83.09;100206.00;5032570;28;20649;-83
2022/11/03 08:13:36;;;;;;;0.00;0.00;;;;;;;9.90;83.38;100203.78;5014239;28;20214;-83
2022/11/03 08:16:01;;;;;;;1.33;1.23;;;;;;;9.93;83.63;100194.16;5031836;28;20176;-81
2022/11/03 08:18:26;;;;;;;0.10;0.10;;;;;;;9.92;83.85;100190.63;5031804;28;20207;-79
2022/11/03 08:20:52;;;;;;;0.20;0.20;;;;;;;9.99;83.60;100196.44;5031619;28;20176;-81
2022/11/03 08:23:18;;;;;;;0.00;0.00;;;;;;;9.95;83.71;100203.63;5031398;28;20176;-83
2022/11/03 08:25:44;;;;;;;10.43;0.63;;;;;;;10.09;83.51;100192.63;5031667;28;20168;-82
2022/11/03 08:28:09;;;;;;;0.00;0.00;;;;;;;10.13;84.30;100197.16;5031689;28;20199;-86
2022/11/03 08:30:34;;;;;;;0.33;0.33;;;;;;;10.18;83.77;100182.56;5031448;28;20180;-81
2022/11/03 08:33:00;;;;;;;2.57;1.43;;;;;;;10.28;84.18;100187.78;5031622;28;20206;-85
2022/11/03 08:35:25;;;;;;;9.63;1.60;;;;;;;10.36;83.31;100186.19;5031420;28;20240;-82
2022/11/03 08:37:51;;;;;;;0.70;0.60;;;;;;;10.40;83.49;100178.97;5031226;28;20179;-82
2022/11/03 08:40:16;;;;;;;0.00;0.00;;;;;;;10.50;83.20;100186.06;5031294;28;20593;-83
2022/11/03 08:42:41;;;;;;;2.10;0.87;;;;;;;10.48;83.25;100175.47;5031271;28;20178;-83
2022/11/03 08:45:07;;;;;;;0.00;0.00;;;;;;;10.54;82.74;100163.25;5030684;28;20183;-85
2022/11/03 08:47:32;;;;;;;0.00;0.00;;;;;;;10.62;82.80;100162.47;5031413;28;20168;-84
2022/11/03 08:49:58;;;;;;;0.00;0.00;;;;;;;10.67;82.49;100167.78;5031007;28;20172;-81
2022/11/03 08:52:24;;;;;;;0.00;0.00;;;;;;;10.69;82.08;100159.25;5030835;28;20168;-84
2022/11/03 08:54:49;;;;;;;0.87;0.60;;;;;;;10.75;82.20;100158.00;5031178;28;20508;-86
2022/11/03 08:57:14;;;;;;;4.03;0.27;;;;;;;10.80;82.36;100151.56;5031049;28;20230;-87
2022/11/03 08:59:39;;;;;;;0.10;0.10;;;;;;;10.89;82.66;100147.72;5031339;28;20220;-85
2022/11/03 09:02:05;;;;;;;8.03;0.97;;;;;;;10.95;82.08;100140.97;5030793;28;20184;-85
2022/11/03 09:04:30;;;;;;;0.17;0.17;;;;;;;10.96;82.02;100136.31;5030856;28;20631;-83
2022/11/03 09:06:55;;;;;;;0.00;0.00;;;;;;;11.02;81.69;100127.63;5031279;28;20168;-87
2022/11/03 09:09:21;;;;;;;0.00;0.00;;;;;;;11.04;81.65;100130.06;5030799;28;20534;-86
2022/11/03 09:11:46;;;;;;;0.37;0.37;;;;;;;11.10;81.56;100134.22;5030860;28;20239;-84
2022/11/03 09:14:12;;;;;;;0.20;0.10;;;;;;;11.15;81.95;100134.06;5030603;28;20671;-86
2022/11/03 09:16:37;;;;;;;5.20;1.70;;;;;;;11.17;81.72;100126.34;5012412;28;20176;-86
2022/11/03 09:19:02;;;;;;;1.13;1.13;;;;;;;11.23;81.22;100119.56;5028448;28;20238;-79
2022/11/03 09:21:28;;;;;;;0.00;0.00;;;;;;;11.29;81.99;100121.03;5027266;28;20678;-82
2022/11/03 09:23:53;;;;;;;0.10;0.10;;;;;;;11.46;80.74;100117.44;5030204;28;20191;-83
2022/11/03 09:26:19;;;;;;;0.50;0.50;;;;;;;11.50;80.63;100120.34;5029515;28;20188;-84
2022/11/03 09:28:44;;;;;;;0.00;0.00;;;;;;;11.57;79.92;100107.78;5023411;28;20800;-81
2022/11/03 09:31:09;;;;;;;0.20;0.10;;;;;;;11.70;79.42;100122.38;5026502;28;20246;-79
2022/11/03 09:33:35;;;;;;;1.10;0.73;;;;;;;11.75;79.23;100110.47;5030246;28;20199;-82
2022/11/03 09:36:01;;;;;;;0.47;0.30;;;;;;;11.80;79.14;100108.38;5030500;28;20179;-85
2022/11/03 09:38:26;;;;;;;3.53;0.33;;;;;;;11.89;78.75;100111.88;5030681;28;20175;-85
2022/11/03 09:40:51;;;;;;;1.10;0.80;;;;;;;11.97;79.09;100114.91;5030733;28;20233;-81
2022/11/03 09:43:17;;;;;;;0.00;0.00;;;;;;;12.05;78.39;100111.34;5012196;28;20180;-81
2022/11/03 09:45:42;;;;;;;1.20;0.60;;;;;;;12.10;78.19;100100.19;5028730;28;20198;-82
2022/11/03 09:48:11;;;;;;;0.00;0.00;;;;;;;12.11;78.10;100097.13;5022539;28;20195;-79
2022/11/03 09:50:38;;;;;;;0.50;0.50;;;;;;;12.24;78.40;100099.94;5029170;28;20185;-81
2022/11/03 09:53:04;;;;;;;0.00;0.00;;;;;;;12.24;76.96;100100.75;5026234;28;20254;-82
2022/11/03 09:55:29;;;;;;;0.90;0.90;;;;;;;12.30;77.59;100102.19;5030080;28;20623;-82
2022/11/03 09:57:59;;;;;;;1.90;0.83;;;;;;;12.30;77.49;100096.72;5031546;28;20192;-81
2022/11/03 10:00:26;;;;;;;0.20;0.20;;;;;;;12.28;77.24;100098.94;5034207;28;20187;-81
2022/11/03 10:02:53;;;;;;;2.53;1.10;;;;;;;12.32;77.77;100088.97;5034065;28;20274;-82
2022/11/03 10:05:23;;;;;;;0.10;0.10;;;;;;;12.24;77.08;100073.38;5034407;28;20274;-81
2022/11/03 10:07:51;;;;;;;0.00;0.00;;;;;;;12.22;77.53;100045.50;5034466;28;20181;-82
2022/11/03 10:10:19;;;;;;;0.00;0.00;;;;;;;12.20;78.08;100036.81;5034493;28;20180;-81
2022/11/03 10:12:46;;;;;;;0.00;0.00;;;;;;;12.19;78.46;100052.47;5034280;28;20228;-81
2022/11/03 10:15:19;;;;;;;0.20;0.20;;;;;;;12.20;78.17;100065.00;5034545;28;20404;-82
2022/11/03 10:17:45;;;;;;;0.67;0.67;;;;;;;12.04;78.41;100060.44;5034337;28;20644;-81
2022/11/03 10:20:13;;;;;;;0.00;0.00;;;;;;;12.10;78.47;100046.22;5034259;28;20635;-79
2022/11/03 10:22:41;;;;;;;0.40;0.40;;;;;;;12.19;79.06;100043.44;5034001;28;20190;-82
2022/11/03 10:25:37;;;;;;;0.20;0.20;;;;;;;12.17;78.79;100045.72;5034221;28;20203;-80
2022/11/03 10:28:20;;;;;;;0.77;0.77;;;;;;;12.12;78.56;100045.88;5034217;28;20208;-79
2022/11/03 10:30:58;;;;;;;0.80;0.77;;;;;;;12.21;78.30;100060.34;5034099;28;20203;-81
2022/11/03 10:33:28;;;;;;;0.47;0.47;;;;;;;12.21;78.38;100047.44;5033997;28;20509;-82
2022/11/03 10:35:56;;;;;;;0.20;0.20;;;;;;;12.19;77.63;100057.13;5034039;28;20199;-81
2022/11/03 10:38:29;;;;;;;0.00;0.00;;;;;;;12.16;78.17;100053.13;5033674;28;20636;-81
2022/11/03 10:40:55;;;;;;;3.43;1.03;;;;;;;12.25;78.65;100050.31;5016220;28;20593;-80
2022/11/03 10:43:21;;;;;;;0.70;0.30;;;;;;;12.27;78.25;100047.25;5033800;28;20183;-82
2022/11/03 10:45:48;;;;;;;0.27;0.27;;;;;;;12.24;78.29;100051.44;5033846;28;20187;-80
2022/11/03 10:48:13;;;;;;;10.67;1.10;;;;;;;12.21;78.07;100046.66;5033792;28;20199;-80
2022/11/03 10:50:40;;;;;;;0.00;0.00;;;;;;;12.21;78.54;100035.69;5033815;28;20206;-81
2022/11/03 10:53:16;;;;;;;0.00;0.00;;;;;;;12.23;78.48;100019.72;5033272;28;20226;-81
2022/11/03 10:55:41;;;;;;;0.53;0.50;;;;;;;12.18;77.87;100022.66;5033532;28;20172;-82
2022/11/03 10:58:06;;;;;;;0.77;0.77;;;;;;;12.17;79.03;100002.69;5033680;28;20500;-83
2022/11/03 11:00:32;;;;;;;0.00;0.00;;;;;;;12.21;78.68;100011.03;5033577;28;20689;-83
2022/11/03 11:02:59;;;;;;;0.00;0.00;;;;;;;12.20;78.89;99999.28;5033338;28;20172;-81
2022/11/03 11:05:25;;;;;;;0.10;0.10;;;;;;;12.29;78.62;100001.94;5033164;28;20172;-82
2022/11/03 11:07:53;;;;;;;0.00;0.00;;;;;;;12.36;79.05;99995.94;5032772;28;20247;-83
2022/11/03 11:10:23;;;;;;;0.57;0.57;;;;;;;12.42;78.12;99989.13;5033045;28;20244;-82
2022/11/03 11:13:11;;;;;;;0.30;0.20;;;;;;;12.50;78.38;99991.81;5032704;28;20275;-80
2022/11/03 11:15:40;;;;;;;0.43;0.43;;;;;;;12.49;77.85;99990.19;5033010;28;20182;-82
2022/11/03 11:18:05;;;;;;;0.00;0.00;;;;;;;12.55;77.41;99981.75;5032788;28;20686;-79
2022/11/03 11:20:35;;;;;;;9.90;1.53;;;;;;;12.55;77.88;99976.28;5033130;28;20199;-84
2022/11/03 11:23:28;;;;;;;0.87;0.87;;;;;;;12.51;77.30;99970.69;5032550;28;20168;-82
2022/11/03 11:26:08;;;;;;;0.10;0.03;;;;;;;12.57;77.74;99963.03;5032915;28;20634;-83
2022/11/03 11:28:44;;;;;;;0.57;0.30;;;;;;;12.66;77.59;99955.56;5032548;28;20177;-81
2022/11/03 11:31:27;;;;;;;0.53;0.53;;;;;;;12.70;77.26;99945.50;5032905;28;20179;-81
2022/11/03 11:34:19;;;;;;;0.03;0.03;;;;;;;12.71;77.10;99933.41;5032524;28;20689;-82
2022/11/03 11:37:06;;;;;;;0.20;0.20;;;;;;;12.77;77.05;99929.31;5008878;28;20546;-82
2022/11/03 11:39:32;;;;;;;0.90;0.73;;;;;;;12.82;76.71;99926.34;5032411;28;20532;-82
2022/11/03 11:42:18;;;;;;;2.03;1.87;;;;;;;12.81;76.65;99914.59;5032559;28;20202;-82
2022/11/03 11:44:44;;;;;;;0.60;0.60;;;;;;;12.79;77.09;99907.84;5032075;28;20611;-82
2022/11/03 11:47:30;;;;;;;0.10;0.10;;;;;;;12.80;76.45;99902.03;5032433;28;20260;-80
2022/11/03 11:50:14;;;;;;;0.00;0.00;;;;;;;12.83;76.59;99895.06;5032305;28;20548;-83
2022/11/03 11:52:41;;;;;;;0.47;0.47;;;;;;;12.84;76.83;99893.13;5032062;28;20512;-84
2022/11/03 11:55:23;;;;;;;1.00;1.00;;;;;;;12.82;76.72;99893.47;5032230;28;20180;-83
2022/11/03 11:57:49;;;;;;;0.00;0.00;;;;;;;12.79;76.77;99883.97;5032124;28;20238;-82
2022/11/03 12:00:23;;;;;;;1.00;0.70;;;;;;;12.80;76.88;99879.28;5032198;28;20172;-81
2022/11/03 12:02:50;;;;;;;0.63;0.63;;;;;;;12.82;76.82;99875.06;5031863;28;20179;-83
2022/11/03 12:05:27;;;;;;;3.50;1.03;;;;;;;12.91;77.35;99876.94;5032126;28;20202;-83
2022/11/03 12:07:54;;;;;;;0.30;0.30;;;;;;;12.93;76.92;99872.69;5031933;28;20205;-83